createdAt,value
2022-10-06T00:00:06.113Z,4.81
2022-10-06T00:02:37.480Z,4.79
2022-10-06T00:05:06.363Z,4.65
2022-10-06T00:07:36.804Z,4.72
2022-10-06T00:10:07.567Z,4.86
2022-10-06T00:12:44.404Z,4.88
2022-10-06T00:15:15.176Z,4.95
2022-10-06T00:17:43.902Z,4.89
2022-10-06T00:20:13.324Z,4.93
2022-10-06T00:22:48.106Z,4.84
2022-10-06T00:25:18.189Z,4.90
2022-10-06T00:27:51.219Z,4.57
2022-10-06T00:30:23.045Z,4.94
2022-10-06T00:32:57.967Z,4.91
2022-10-06T00:35:26.934Z,4.86
2022-10-06T00:37:56.190Z,4.69
2022-10-06T00:40:25.223Z,4.76
2022-10-06T00:42:55.970Z,4.94
2022-10-06T00:45:40.922Z,4.84
2022-10-06T00:48:23.380Z,4.97
2022-10-06T00:50:58.070Z,4.82
2022-10-06T00:53:32.660Z,4.87
2022-10-06T00:56:01.039Z,4.51
2022-10-06T00:58:30.052Z,4.78
2022-10-06T01:01:00.161Z,4.66
2022-10-06T01:03:55.804Z,4.91
2022-10-06T01:06:24.260Z,4.78
2022-10-06T01:08:53.897Z,4.51
2022-10-06T01:11:22.493Z,4.71
2022-10-06T01:13:51.204Z,4.64
2022-10-06T01:16:25.888Z,4.69
2022-10-06T01:18:56.807Z,4.59
2022-10-06T01:21:34.589Z,4.69
2022-10-06T01:24:04.863Z,4.59
2022-10-06T01:26:36.779Z,4.51
2022-10-06T01:29:05.680Z,4.50
2022-10-06T01:31:37.701Z,4.53
2022-10-06T01:34:06.777Z,4.57
2022-10-06T01:36:35.437Z,4.34
2022-10-06T01:39:04.158Z,4.51
2022-10-06T01:41:34.789Z,4.45
2022-10-06T01:44:04.134Z,4.03
2022-10-06T01:46:33.006Z,3.98
2022-10-06T01:49:01.765Z,4.26
2022-10-06T01:51:30.817Z,4.32
2022-10-06T01:53:59.838Z,4.19
2022-10-06T01:56:28.435Z,4.19
2022-10-06T01:58:57.074Z,4.15
2022-10-06T02:01:25.786Z,4.39
2022-10-06T02:03:55.734Z,4.29
2022-10-06T02:06:24.543Z,4.25
2022-10-06T02:08:55.919Z,4.43
2022-10-06T02:11:24.621Z,4.51
2022-10-06T02:13:53.428Z,4.44
2022-10-06T02:16:23.054Z,4.27
2022-10-06T02:18:51.695Z,4.66
2022-10-06T02:21:23.358Z,4.45
2022-10-06T02:23:52.534Z,4.83
2022-10-06T02:26:21.337Z,4.90
2022-10-06T02:28:51.440Z,5.05
2022-10-06T02:31:25.178Z,4.73
2022-10-06T02:33:54.137Z,5.26
2022-10-06T02:36:25.095Z,5.37
2022-10-06T02:38:53.801Z,5.32
2022-10-06T02:41:22.723Z,5.50
2022-10-06T02:43:54.323Z,5.62
2022-10-06T02:46:24.822Z,5.75
2022-10-06T02:48:54.506Z,5.81
2022-10-06T02:51:23.879Z,5.91
2022-10-06T02:53:52.887Z,5.96
2022-10-06T02:56:26.517Z,6.12
2022-10-06T02:58:55.259Z,6.09
2022-10-06T03:01:29.610Z,6.20
2022-10-06T03:04:08.022Z,6.37
2022-10-06T03:06:36.936Z,6.04
2022-10-06T03:09:10.925Z,6.31
2022-10-06T03:11:43.780Z,6.51
2022-10-06T03:14:21.631Z,6.59
2022-10-06T03:16:52.616Z,6.70
2022-10-06T03:19:25.426Z,6.87
2022-10-06T03:21:55.506Z,6.94
2022-10-06T03:24:32.294Z,7.16
2022-10-06T03:27:02.963Z,7.31
2022-10-06T03:29:32.067Z,7.31
2022-10-06T03:32:00.919Z,7.22
2022-10-06T03:34:30.072Z,7.57
2022-10-06T03:37:00.957Z,7.51
2022-10-06T03:39:30.359Z,7.52
2022-10-06T03:41:58.999Z,7.41
2022-10-06T03:44:28.018Z,7.47
2022-10-06T03:46:56.431Z,7.72
2022-10-06T03:49:25.038Z,7.80
2022-10-06T03:51:55.198Z,7.69
2022-10-06T03:54:28.261Z,8.03
2022-10-06T03:56:57.678Z,7.69
2022-10-06T03:59:29.765Z,8.11
2022-10-06T04:01:59.631Z,8.02
2022-10-06T04:04:32.339Z,8.32
2022-10-06T04:07:04.509Z,8.03
2022-10-06T04:09:33.062Z,8.34
2022-10-06T04:12:02.868Z,8.43
2022-10-06T04:14:34.949Z,8.58
2022-10-06T04:17:04.380Z,8.82
2022-10-06T04:19:36.308Z,8.92
2022-10-06T04:22:05.193Z,8.88
2022-10-06T04:24:34.816Z,9.13
2022-10-06T04:27:22.248Z,9.16
2022-10-06T04:30:11.535Z,9.42
2022-10-06T04:32:40.979Z,9.52
2022-10-06T04:35:09.639Z,9.56
2022-10-06T04:37:38.641Z,9.57
2022-10-06T04:40:07.817Z,9.74
2022-10-06T04:42:38.290Z,9.75
2022-10-06T04:45:11.282Z,9.93
2022-10-06T04:47:41.275Z,10.05
2022-10-06T04:50:11.144Z,9.84
2022-10-06T04:52:50.313Z,10.22
2022-10-06T04:55:19.033Z,10.39
2022-10-06T04:57:47.824Z,10.15
2022-10-06T05:00:26.362Z,10.43
2022-10-06T05:02:58.122Z,10.53
2022-10-06T05:05:26.665Z,10.53
2022-10-06T05:07:56.927Z,10.58
2022-10-06T05:10:25.684Z,10.55
2022-10-06T05:12:54.163Z,10.68
2022-10-06T05:15:22.883Z,10.85
2022-10-06T05:17:51.247Z,10.96
2022-10-06T05:20:23.521Z,11.12
2022-10-06T05:22:53.034Z,11.27
2022-10-06T05:25:21.488Z,11.22
2022-10-06T05:27:50.112Z,11.41
2022-10-06T05:30:18.854Z,11.38
2022-10-06T05:32:51.142Z,11.54
2022-10-06T05:35:19.913Z,11.52
2022-10-06T05:37:48.686Z,11.66
2022-10-06T05:40:17.338Z,11.64
2022-10-06T05:42:46.069Z,11.78
2022-10-06T05:45:14.821Z,12.07
2022-10-06T05:47:43.633Z,12.41
2022-10-06T05:50:15.114Z,12.63
2022-10-06T05:52:43.531Z,12.94
2022-10-06T05:55:12.204Z,13.29
2022-10-06T05:57:40.817Z,13.47
2022-10-06T06:00:09.865Z,13.30
2022-10-06T06:02:41.367Z,13.59
2022-10-06T06:05:12.176Z,13.63
2022-10-06T06:07:41.467Z,13.72
2022-10-06T06:10:10.682Z,13.72
2022-10-06T06:12:39.209Z,13.83
2022-10-06T06:15:46.526Z,13.95
2022-10-06T06:18:15.052Z,14.36
2022-10-06T06:20:43.827Z,14.53
2022-10-06T06:23:12.757Z,14.69
2022-10-06T06:25:41.379Z,14.91
2022-10-06T06:28:10.266Z,14.81
2022-10-06T06:30:39.293Z,14.74
2022-10-06T06:33:07.926Z,14.35
2022-10-06T06:35:37.701Z,14.52
2022-10-06T06:38:12.471Z,14.55
2022-10-06T06:40:41.903Z,14.45
2022-10-06T06:43:13.805Z,14.21
2022-10-06T06:46:04.910Z,14.26
2022-10-06T06:49:05.055Z,14.43
2022-10-06T06:51:40.953Z,14.41
2022-10-06T06:54:11.274Z,14.47
2022-10-06T06:56:43.160Z,14.35
2022-10-06T06:59:14.359Z,14.89
2022-10-06T07:01:47.937Z,15.14
2022-10-06T07:04:22.169Z,15.38
2022-10-06T07:06:57.983Z,15.61
2022-10-06T07:09:32.133Z,15.81
2022-10-06T07:12:05.194Z,15.91
2022-10-06T07:14:36.354Z,16.07
2022-10-06T07:17:27.337Z,16.13
2022-10-06T07:20:14.406Z,16.20
2022-10-06T07:23:01.726Z,16.15
2022-10-06T07:25:30.618Z,16.16
2022-10-06T07:28:04.588Z,16.02
2022-10-06T07:30:40.538Z,16.01
2022-10-06T07:33:18.850Z,15.91
2022-10-06T07:35:48.990Z,15.84
2022-10-06T07:38:25.249Z,15.64
2022-10-06T07:43:48.182Z,15.31
2022-10-06T07:46:19.829Z,15.45
2022-10-06T07:48:55.747Z,15.47
2022-10-06T07:51:28.026Z,15.35
2022-10-06T07:53:58.704Z,15.57
2022-10-06T07:56:45.101Z,15.61
2022-10-06T07:59:13.605Z,15.61
2022-10-06T08:01:42.336Z,15.79
2022-10-06T08:04:11.560Z,15.80
2022-10-06T08:06:40.820Z,16.14
2022-10-06T08:09:09.524Z,16.34
2022-10-06T08:11:38.181Z,16.28
2022-10-06T08:14:06.983Z,16.39
2022-10-06T08:16:35.662Z,16.47
2022-10-06T08:19:05.087Z,16.53
2022-10-06T08:21:38.987Z,16.49
2022-10-06T08:24:08.320Z,16.58
2022-10-06T08:26:37.043Z,16.61
2022-10-06T08:29:05.704Z,16.62
2022-10-06T08:31:34.805Z,16.54
2022-10-06T08:34:05.052Z,16.57
2022-10-06T08:36:35.237Z,16.61
2022-10-06T08:39:03.815Z,16.53
2022-10-06T08:41:53.780Z,16.57
2022-10-06T08:44:40.024Z,16.49
2022-10-06T08:47:20.896Z,16.30
2022-10-06T08:49:55.721Z,16.22
2022-10-06T08:52:48.099Z,16.17
2022-10-06T08:55:35.244Z,16.12
2022-10-06T08:58:32.485Z,16.06
2022-10-06T09:01:10.272Z,16.07
2022-10-06T09:03:39.783Z,15.75
2022-10-06T09:06:19.496Z,15.97
2022-10-06T09:08:59.416Z,16.09
2022-10-06T09:11:46.602Z,16.12
2022-10-06T09:14:29.040Z,15.81
2022-10-06T09:17:03.376Z,16.05
2022-10-06T09:19:54.934Z,15.96
2022-10-06T09:22:24.597Z,16.11
2022-10-06T09:24:59.067Z,16.38
2022-10-06T09:27:34.841Z,16.47
2022-10-06T09:30:05.616Z,16.53
2022-10-06T09:32:35.408Z,16.63
2022-10-06T09:35:21.085Z,16.53
2022-10-06T09:38:08.579Z,16.59
2022-10-06T09:40:39.459Z,16.69
2022-10-06T09:43:28.966Z,16.53
2022-10-06T09:46:18.479Z,16.58
2022-10-06T09:48:47.020Z,16.48
2022-10-06T09:51:18.108Z,16.51
2022-10-06T09:54:16.761Z,16.53
2022-10-06T09:56:47.907Z,16.58
2022-10-06T09:59:44.357Z,16.59
2022-10-06T10:02:41.762Z,16.60
2022-10-06T10:05:24.418Z,16.70
2022-10-06T10:08:23.838Z,16.70
2022-10-06T10:11:37.354Z,16.73
2022-10-06T10:14:18.040Z,16.62
2022-10-06T10:16:52.356Z,16.61
2022-10-06T10:19:28.550Z,16.54
2022-10-06T10:21:57.136Z,16.46
2022-10-06T10:24:59.904Z,16.51
2022-10-06T10:27:41.819Z,16.33
2022-10-06T10:30:12.376Z,16.25
2022-10-06T10:32:53.145Z,16.23
2022-10-06T10:35:24.475Z,16.18
2022-10-06T10:38:15.904Z,15.94
2022-10-06T10:41:07.683Z,15.94
2022-10-06T10:43:48.561Z,15.80
2022-10-06T10:46:29.704Z,16.00
2022-10-06T10:49:18.860Z,15.88
2022-10-06T10:51:53.655Z,15.93
2022-10-06T10:54:31.654Z,15.81
2022-10-06T10:57:00.476Z,15.84
2022-10-06T10:59:45.773Z,15.77
2022-10-06T11:02:18.983Z,15.61
2022-10-06T11:04:55.555Z,15.29
2022-10-06T11:07:47.155Z,15.43
2022-10-06T11:10:29.258Z,15.31
2022-10-06T11:13:29.904Z,15.19
2022-10-06T11:16:20.014Z,14.95
2022-10-06T11:19:06.623Z,14.94
2022-10-06T11:21:57.414Z,14.74
2022-10-06T11:24:38.356Z,14.73
2022-10-06T11:27:18.983Z,14.64
2022-10-06T11:30:00.874Z,14.44
2022-10-06T11:32:41.227Z,14.42
2022-10-06T11:35:23.932Z,14.29
2022-10-06T11:38:25.691Z,14.33
2022-10-06T11:41:16.698Z,14.24
2022-10-06T11:43:48.277Z,14.18
2022-10-06T11:46:22.982Z,14.08
2022-10-06T11:48:51.942Z,13.87
2022-10-06T11:51:26.912Z,13.97
2022-10-06T11:54:00.084Z,13.78
2022-10-06T11:56:34.564Z,13.85
2022-10-06T11:59:14.687Z,13.77
2022-10-06T12:01:48.661Z,13.75
2022-10-06T12:04:23.441Z,13.67
2022-10-06T12:06:55.803Z,13.61
2022-10-06T12:09:31.741Z,13.51
2022-10-06T12:12:25.596Z,13.37
2022-10-06T12:18:40.892Z,13.15
2022-10-06T12:21:31.301Z,13.10
2022-10-06T12:24:06.325Z,13.02
2022-10-06T12:26:56.586Z,13.04
2022-10-06T12:29:37.456Z,12.97
2022-10-06T12:32:23.537Z,12.74
2022-10-06T12:35:00.263Z,12.84
2022-10-06T12:37:51.497Z,12.76
2022-10-06T12:40:47.762Z,12.71
2022-10-06T12:43:16.579Z,12.71
2022-10-06T12:46:18.662Z,12.65
2022-10-06T12:49:09.453Z,12.60
2022-10-06T12:51:47.753Z,12.53
2022-10-06T12:54:45.395Z,12.49
2022-10-06T12:57:21.412Z,12.34
2022-10-06T12:59:50.701Z,12.31
2022-10-06T13:02:29.398Z,12.29
2022-10-06T13:05:12.552Z,12.22
2022-10-06T13:08:03.533Z,12.20
2022-10-06T13:10:35.835Z,12.14
2022-10-06T13:13:25.034Z,11.98
2022-10-06T13:16:01.169Z,11.56
2022-10-06T13:18:29.733Z,11.94
2022-10-06T13:20:59.832Z,11.98
2022-10-06T13:23:34.023Z,11.76
2022-10-06T13:26:05.074Z,11.86
2022-10-06T13:28:49.402Z,11.78
2022-10-06T13:31:20.529Z,11.74
2022-10-06T13:34:13.536Z,11.61
2022-10-06T13:36:44.909Z,11.54
2022-10-06T13:39:22.173Z,11.43
2022-10-06T13:41:56.635Z,11.62
2022-10-06T13:44:39.075Z,11.56
2022-10-06T13:47:16.319Z,11.49
2022-10-06T13:50:02.738Z,11.41
2022-10-06T13:52:35.071Z,11.53
2022-10-06T13:55:06.735Z,11.44
2022-10-06T13:57:48.586Z,11.47
2022-10-06T14:00:31.876Z,11.40
2022-10-06T14:03:06.820Z,11.43
2022-10-06T14:05:37.578Z,11.36
2022-10-06T14:08:12.354Z,11.40
2022-10-06T14:11:00.438Z,11.23
2022-10-06T14:13:42.944Z,11.26
2022-10-06T14:16:21.376Z,11.16
2022-10-06T14:19:00.715Z,11.18
2022-10-06T14:21:35.755Z,11.18
2022-10-06T14:24:29.214Z,11.11
2022-10-06T14:27:03.544Z,10.98
2022-10-06T14:29:33.925Z,11.05
2022-10-06T14:32:17.056Z,11.12
2022-10-06T14:34:45.761Z,11.06
2022-10-06T14:37:16.245Z,11.09
2022-10-06T14:39:46.413Z,10.91
2022-10-06T14:42:16.303Z,11.04
2022-10-06T14:44:45.594Z,10.98
2022-10-06T14:47:14.296Z,10.79
2022-10-06T14:49:43.155Z,10.85
2022-10-06T14:52:12.758Z,10.52
2022-10-06T14:54:43.575Z,10.64
2022-10-06T14:57:12.272Z,10.70
2022-10-06T14:59:40.954Z,10.65
2022-10-06T15:02:11.714Z,10.57
2022-10-06T15:04:40.506Z,10.63
2022-10-06T15:07:27.276Z,10.42
2022-10-06T15:09:56.355Z,10.54
2022-10-06T15:12:25.073Z,10.27
2022-10-06T15:14:54.115Z,10.51
2022-10-06T15:17:23.654Z,10.45
2022-10-06T15:19:52.366Z,10.04
2022-10-06T15:22:21.154Z,10.23
2022-10-06T15:24:52.092Z,10.19
2022-10-06T15:30:08.494Z,10.05
2022-10-06T15:32:37.136Z,9.95
2022-10-06T15:35:06.017Z,10.02
2022-10-06T15:37:34.635Z,9.88
2022-10-06T15:40:06.318Z,9.58
2022-10-06T15:42:37.203Z,9.72
2022-10-06T15:45:07.652Z,9.72
2022-10-06T15:47:36.196Z,9.72
2022-10-06T15:50:05.401Z,9.68
2022-10-06T15:52:35.343Z,9.71
2022-10-06T15:55:04.295Z,9.63
2022-10-06T15:57:32.734Z,9.59
2022-10-06T16:00:01.456Z,9.62
2022-10-06T16:02:41.141Z,9.56
2022-10-06T16:05:10.100Z,9.35
2022-10-06T16:07:38.965Z,9.42
2022-10-06T16:10:08.454Z,9.18
2022-10-06T16:12:36.995Z,9.25
2022-10-06T16:15:06.108Z,9.19
2022-10-06T16:17:35.015Z,9.29
2022-10-06T16:20:05.930Z,9.19
2022-10-06T16:22:34.475Z,9.35
2022-10-06T16:25:04.944Z,9.28
2022-10-06T16:27:36.215Z,9.28
2022-10-06T16:30:05.190Z,9.23
2022-10-06T16:32:33.712Z,9.40
2022-10-06T16:35:02.360Z,9.41
2022-10-06T16:37:30.887Z,9.32
2022-10-06T16:39:59.553Z,9.43
2022-10-06T16:42:28.198Z,9.29
2022-10-06T16:44:56.823Z,9.40
2022-10-06T16:47:25.464Z,9.42
2022-10-06T16:49:54.014Z,9.38
2022-10-06T16:52:22.796Z,9.36
2022-10-06T16:54:51.285Z,9.34
2022-10-06T16:57:20.063Z,9.28
2022-10-06T16:59:48.737Z,9.34
2022-10-06T17:02:17.328Z,9.31
2022-10-06T17:04:46.015Z,9.26
2022-10-06T17:07:14.815Z,9.39
2022-10-06T17:09:55.990Z,9.27
2022-10-06T17:12:30.390Z,9.21
2022-10-06T17:14:59.152Z,9.22
2022-10-06T17:17:30.395Z,9.12
2022-10-06T17:19:59.116Z,8.84
2022-10-06T17:22:28.096Z,9.09
2022-10-06T17:24:56.695Z,9.00
2022-10-06T17:27:29.295Z,8.98
2022-10-06T17:29:57.895Z,8.91
2022-10-06T17:32:26.633Z,8.83
2022-10-06T17:34:56.047Z,8.88
2022-10-06T17:37:24.697Z,8.92
2022-10-06T17:39:53.473Z,8.91
2022-10-06T17:42:21.973Z,8.89
2022-10-06T17:44:50.515Z,8.89
2022-10-06T17:47:22.098Z,8.88
2022-10-06T17:49:50.933Z,8.79
2022-10-06T17:52:24.094Z,8.87
2022-10-06T17:54:55.135Z,8.84
2022-10-06T17:57:23.694Z,8.84
2022-10-06T17:59:53.193Z,8.76
2022-10-06T18:02:21.814Z,8.91
2022-10-06T18:04:51.101Z,8.89
2022-10-06T18:07:20.034Z,8.90
2022-10-06T18:10:08.623Z,8.98
2022-10-06T18:12:39.191Z,8.73
2022-10-06T18:15:11.838Z,8.92
2022-10-06T18:17:40.753Z,9.13
2022-10-06T18:20:10.175Z,9.06
2022-10-06T18:22:39.329Z,9.17
2022-10-06T18:25:10.603Z,9.09
2022-10-06T18:27:39.559Z,9.12
2022-10-06T18:30:09.341Z,9.22
2022-10-06T18:34:18.060Z,9.01
2022-10-06T18:38:15.133Z,9.09
2022-10-06T18:40:43.994Z,8.92
2022-10-06T18:43:12.571Z,9.00
2022-10-06T18:46:02.413Z,8.96
2022-10-06T18:48:49.335Z,8.72
2022-10-06T18:51:22.837Z,8.82
2022-10-06T18:53:52.095Z,8.79
2022-10-06T18:56:21.090Z,8.61
2022-10-06T18:58:49.654Z,8.70
2022-10-06T19:01:18.724Z,8.66
2022-10-06T19:03:47.691Z,8.40
2022-10-06T19:06:16.074Z,8.47
2022-10-06T19:08:45.067Z,8.48
2022-10-06T19:11:31.882Z,8.50
2022-10-06T19:14:03.151Z,8.23
2022-10-06T19:16:31.824Z,8.32
2022-10-06T19:19:03.394Z,8.16
2022-10-06T19:21:37.945Z,8.08
2022-10-06T19:24:06.862Z,8.02
2022-10-06T19:26:36.256Z,8.10
2022-10-06T19:29:08.806Z,8.04
2022-10-06T19:31:42.075Z,8.27
2022-10-06T19:34:13.595Z,8.28
2022-10-06T19:36:42.493Z,8.26
2022-10-06T19:39:13.462Z,8.20
2022-10-06T19:42:02.282Z,8.20
2022-10-06T19:44:31.045Z,7.81
2022-10-06T19:46:59.613Z,7.98
2022-10-06T19:49:29.794Z,7.88
2022-10-06T19:51:58.857Z,8.02
2022-10-06T19:54:28.434Z,7.69
2022-10-06T19:57:00.799Z,7.85
2022-10-06T19:59:33.239Z,7.88
2022-10-06T20:02:01.772Z,7.80
2022-10-06T20:04:30.704Z,7.86
2022-10-06T20:07:02.645Z,7.89
2022-10-06T20:09:34.954Z,7.76
2022-10-06T20:12:03.863Z,7.76
2022-10-06T20:14:32.385Z,7.65
2022-10-06T20:17:00.828Z,7.56
2022-10-06T20:19:29.448Z,7.29
2022-10-06T20:21:57.960Z,7.47
2022-10-06T20:24:26.578Z,7.42
2022-10-06T20:26:55.374Z,7.31
2022-10-06T20:29:26.060Z,7.37
2022-10-06T20:31:57.035Z,7.29
2022-10-06T20:34:33.358Z,6.99
2022-10-06T20:37:04.548Z,7.11
2022-10-06T20:39:53.075Z,6.74
2022-10-06T20:42:22.315Z,6.74
2022-10-06T20:44:51.354Z,6.91
2022-10-06T20:47:19.995Z,6.93
2022-10-06T20:49:54.053Z,6.74
2022-10-06T20:52:24.997Z,6.61
2022-10-06T20:54:53.553Z,6.54
2022-10-06T20:57:22.109Z,6.67
2022-10-06T20:59:50.592Z,6.48
2022-10-06T21:02:19.308Z,6.39
2022-10-06T21:04:47.819Z,6.31
2022-10-06T21:07:16.284Z,6.32
2022-10-06T21:09:48.646Z,6.10
2022-10-06T21:12:20.783Z,6.14
2022-10-06T21:14:49.368Z,6.14
2022-10-06T21:17:17.946Z,6.02
2022-10-06T21:19:46.852Z,5.92
2022-10-06T21:22:15.614Z,5.92
2022-10-06T21:24:44.674Z,5.95
2022-10-06T21:27:13.253Z,5.97
2022-10-06T21:29:41.792Z,5.89
2022-10-06T21:32:10.693Z,5.55
2022-10-06T21:34:39.948Z,5.67
2022-10-06T21:37:08.594Z,5.63
2022-10-06T21:39:37.165Z,5.70
2022-10-06T21:42:05.841Z,5.83
2022-10-06T21:44:34.492Z,5.64
2022-10-06T21:47:03.185Z,5.72
2022-10-06T21:49:31.674Z,5.67
2022-10-06T21:52:04.373Z,5.68
2022-10-06T21:54:32.968Z,5.69
2022-10-06T21:57:01.562Z,4.77
2022-10-06T21:59:30.760Z,5.34
2022-10-06T22:01:58.952Z,5.54
2022-10-06T22:04:27.403Z,5.30
2022-10-06T22:06:56.053Z,5.47
2022-10-06T22:09:24.853Z,5.50
2022-10-06T22:11:53.313Z,5.36
2022-10-06T22:14:22.033Z,5.42
2022-10-06T22:16:50.693Z,5.48
2022-10-06T22:19:20.593Z,5.57
2022-10-06T22:21:49.575Z,5.36
2022-10-06T22:24:22.515Z,5.56
2022-10-06T22:26:51.211Z,5.59
2022-10-06T22:29:21.474Z,5.68
2022-10-06T22:31:50.234Z,5.66
2022-10-06T22:34:21.413Z,5.81
2022-10-06T22:36:49.971Z,5.73
2022-10-06T22:39:18.797Z,5.88
2022-10-06T22:41:47.333Z,5.87
2022-10-06T22:44:16.295Z,5.83
2022-10-06T22:46:45.166Z,5.95
2022-10-06T22:49:13.816Z,6.12
2022-10-06T22:51:42.414Z,6.10
2022-10-06T22:54:17.741Z,6.26
2022-10-06T22:56:46.701Z,6.22
2022-10-06T22:59:15.332Z,6.31
2022-10-06T23:01:43.774Z,6.34
2022-10-06T23:04:12.361Z,6.48
2022-10-06T23:06:41.272Z,6.51
2022-10-06T23:09:10.109Z,6.40
2022-10-06T23:11:41.108Z,6.53
2022-10-06T23:14:09.840Z,6.50
2022-10-06T23:16:38.749Z,6.55
2022-10-06T23:19:07.162Z,6.55
2022-10-06T23:21:37.845Z,6.49
2022-10-06T23:24:06.515Z,6.46
2022-10-06T23:26:35.303Z,6.21
2022-10-06T23:29:04.853Z,6.29
2022-10-06T23:31:33.526Z,6.10
2022-10-06T23:34:02.109Z,6.29
2022-10-06T23:36:30.916Z,6.01
2022-10-06T23:39:00.597Z,6.25
2022-10-06T23:41:29.240Z,6.16
2022-10-06T23:43:57.915Z,6.17
2022-10-06T23:46:26.784Z,6.10
2022-10-06T23:48:55.179Z,6.05
2022-10-06T23:51:23.868Z,5.99
2022-10-06T23:53:52.767Z,5.89
2022-10-06T23:56:22.270Z,6.05
2022-10-06T23:58:50.865Z,5.99
